sensor_id;sensor_type;location;lat;lon;timestamp;P1;durP1;ratioP1;P2;durP2;ratioP2
6937;SDS011;40040;42.706;23.372;2024-02-26T00:02:22;40.53;;;22.20;;
6937;SDS011;40040;42.706;23.372;2024-02-26T00:04:49;39.17;;;21.33;;
6937;SDS011;40040;42.706;23.372;2024-02-26T00:07:16;39.72;;;20.77;;
6937;SDS011;40040;42.706;23.372;2024-02-26T00:09:42;38.33;;;20.52;;
6937;SDS011;40040;42.706;23.372;2024-02-26T00:12:09;44.28;;;21.20;;
6937;SDS011;40040;42.706;23.372;2024-02-26T00:14:37;41.05;;;21.63;;
6937;SDS011;40040;42.706;23.372;2024-02-26T00:17:04;44.35;;;23.52;;
6937;SDS011;40040;42.706;23.372;2024-02-26T00:19:30;47.08;;;25.17;;
6937;SDS011;40040;42.706;23.372;2024-02-26T00:21:57;51.95;;;25.30;;
6937;SDS011;40040;42.706;23.372;2024-02-26T00:24:24;47.15;;;23.67;;
6937;SDS011;40040;42.706;23.372;2024-02-26T00:26:52;48.00;;;24.60;;
6937;SDS011;40040;42.706;23.372;2024-02-26T00:29:19;47.85;;;24.05;;
6937;SDS011;40040;42.706;23.372;2024-02-26T00:31:48;41.08;;;21.73;;
6937;SDS011;40040;42.706;23.372;2024-02-26T00:34:15;42.28;;;22.42;;
6937;SDS011;40040;42.706;23.372;2024-02-26T00:36:42;48.13;;;22.95;;
6937;SDS011;40040;42.706;23.372;2024-02-26T00:39:08;43.85;;;23.08;;
6937;SDS011;40040;42.706;23.372;2024-02-26T00:41:37;42.40;;;23.17;;
6937;SDS011;40040;42.706;23.372;2024-02-26T00:44:05;49.30;;;23.70;;
6937;SDS011;40040;42.706;23.372;2024-02-26T00:46:31;41.45;;;22.63;;
6937;SDS011;40040;42.706;23.372;2024-02-26T00:49:00;42.50;;;22.73;;
6937;SDS011;40040;42.706;23.372;2024-02-26T00:51:26;44.85;;;23.50;;
6937;SDS011;40040;42.706;23.372;2024-02-26T00:53:53;47.28;;;23.55;;
6937;SDS011;40040;42.706;23.372;2024-02-26T00:56:20;47.85;;;25.25;;
6937;SDS011;40040;42.706;23.372;2024-02-26T00:58:47;50.78;;;25.88;;
6937;SDS011;40040;42.706;23.372;2024-02-26T01:01:14;50.77;;;26.93;;
6937;SDS011;40040;42.706;23.372;2024-02-26T01:03:41;58.17;;;28.23;;
6937;SDS011;40040;42.706;23.372;2024-02-26T01:06:09;51.33;;;26.80;;
6937;SDS011;40040;42.706;23.372;2024-02-26T01:08:36;52.13;;;26.90;;
6937;SDS011;40040;42.706;23.372;2024-02-26T01:11:04;52.50;;;27.77;;
6937;SDS011;40040;42.706;23.372;2024-02-26T01:13:31;46.97;;;25.33;;
6937;SDS011;40040;42.706;23.372;2024-02-26T01:15:57;46.63;;;23.98;;
6937;SDS011;40040;42.706;23.372;2024-02-26T01:18:25;41.25;;;22.83;;
6937;SDS011;40040;42.706;23.372;2024-02-26T01:20:52;37.38;;;21.20;;
6937;SDS011;40040;42.706;23.372;2024-02-26T01:23:21;42.50;;;22.40;;
6937;SDS011;40040;42.706;23.372;2024-02-26T01:25:47;41.58;;;22.10;;
6937;SDS011;40040;42.706;23.372;2024-02-26T01:28:14;38.33;;;20.83;;
6937;SDS011;40040;42.706;23.372;2024-02-26T01:30:41;38.35;;;20.83;;
6937;SDS011;40040;42.706;23.372;2024-02-26T01:33:08;38.70;;;21.45;;
6937;SDS011;40040;42.706;23.372;2024-02-26T01:35:35;40.78;;;22.15;;
6937;SDS011;40040;42.706;23.372;2024-02-26T01:38:01;40.08;;;21.98;;
6937;SDS011;40040;42.706;23.372;2024-02-26T01:40:29;40.90;;;21.70;;
6937;SDS011;40040;42.706;23.372;2024-02-26T01:42:56;39.90;;;20.98;;
6937;SDS011;40040;42.706;23.372;2024-02-26T01:45:23;37.35;;;22.33;;
6937;SDS011;40040;42.706;23.372;2024-02-26T01:47:50;41.75;;;22.45;;
6937;SDS011;40040;42.706;23.372;2024-02-26T01:50:18;36.50;;;21.40;;
6937;SDS011;40040;42.706;23.372;2024-02-26T01:52:45;41.72;;;22.55;;
6937;SDS011;40040;42.706;23.372;2024-02-26T01:55:13;41.72;;;22.10;;
6937;SDS011;40040;42.706;23.372;2024-02-26T01:57:42;35.85;;;20.40;;
6937;SDS011;40040;42.706;23.372;2024-02-26T02:00:11;38.00;;;22.85;;
6937;SDS011;40040;42.706;23.372;2024-02-26T02:02:41;44.42;;;23.08;;
6937;SDS011;40040;42.706;23.372;2024-02-26T02:05:10;44.05;;;23.15;;
6937;SDS011;40040;42.706;23.372;2024-02-26T02:07:38;40.08;;;22.42;;
6937;SDS011;40040;42.706;23.372;2024-02-26T02:10:07;38.00;;;22.33;;
6937;SDS011;40040;42.706;23.372;2024-02-26T02:12:35;37.03;;;20.88;;
6937;SDS011;40040;42.706;23.372;2024-02-26T02:15:07;34.90;;;21.05;;
6937;SDS011;40040;42.706;23.372;2024-02-26T02:17:34;35.78;;;20.50;;
6937;SDS011;40040;42.706;23.372;2024-02-26T02:20:01;35.80;;;21.23;;
6937;SDS011;40040;42.706;23.372;2024-02-26T02:22:30;39.92;;;21.17;;
6937;SDS011;40040;42.706;23.372;2024-02-26T02:24:57;41.70;;;21.92;;
6937;SDS011;40040;42.706;23.372;2024-02-26T02:27:24;36.70;;;20.92;;
6937;SDS011;40040;42.706;23.372;2024-02-26T02:29:51;38.25;;;20.80;;
6937;SDS011;40040;42.706;23.372;2024-02-26T02:32:19;39.25;;;21.55;;
6937;SDS011;40040;42.706;23.372;2024-02-26T02:34:46;38.58;;;21.42;;
6937;SDS011;40040;42.706;23.372;2024-02-26T02:37:13;37.63;;;21.65;;
6937;SDS011;40040;42.706;23.372;2024-02-26T02:39:41;39.15;;;21.48;;
6937;SDS011;40040;42.706;23.372;2024-02-26T02:42:09;41.63;;;23.55;;
6937;SDS011;40040;42.706;23.372;2024-02-26T02:44:37;37.47;;;21.70;;
6937;SDS011;40040;42.706;23.372;2024-02-26T02:47:04;40.33;;;23.13;;
6937;SDS011;40040;42.706;23.372;2024-02-26T02:49:30;43.10;;;23.25;;
6937;SDS011;40040;42.706;23.372;2024-02-26T02:51:57;42.28;;;22.80;;
6937;SDS011;40040;42.706;23.372;2024-02-26T02:54:24;46.75;;;24.58;;
6937;SDS011;40040;42.706;23.372;2024-02-26T02:56:52;43.38;;;23.75;;
6937;SDS011;40040;42.706;23.372;2024-02-26T02:59:19;44.90;;;23.92;;
6937;SDS011;40040;42.706;23.372;2024-02-26T03:01:46;40.60;;;23.17;;
6937;SDS011;40040;42.706;23.372;2024-02-26T03:04:12;41.75;;;23.15;;
6937;SDS011;40040;42.706;23.372;2024-02-26T03:06:39;44.10;;;22.55;;
6937;SDS011;40040;42.706;23.372;2024-02-26T03:09:06;39.80;;;22.23;;
6937;SDS011;40040;42.706;23.372;2024-02-26T03:11:33;39.47;;;22.10;;
6937;SDS011;40040;42.706;23.372;2024-02-26T03:14:01;38.80;;;21.75;;
6937;SDS011;40040;42.706;23.372;2024-02-26T03:16:29;36.90;;;21.48;;
6937;SDS011;40040;42.706;23.372;2024-02-26T03:18:55;38.72;;;22.17;;
6937;SDS011;40040;42.706;23.372;2024-02-26T03:21:22;39.13;;;21.75;;
6937;SDS011;40040;42.706;23.372;2024-02-26T03:23:49;36.13;;;22.15;;
6937;SDS011;40040;42.706;23.372;2024-02-26T03:26:16;40.67;;;21.35;;
6937;SDS011;40040;42.706;23.372;2024-02-26T03:28:43;36.75;;;21.15;;
6937;SDS011;40040;42.706;23.372;2024-02-26T03:31:11;43.42;;;22.45;;
6937;SDS011;40040;42.706;23.372;2024-02-26T03:33:37;48.28;;;24.02;;
6937;SDS011;40040;42.706;23.372;2024-02-26T03:36:04;45.90;;;26.52;;
6937;SDS011;40040;42.706;23.372;2024-02-26T03:38:32;56.42;;;31.40;;
6937;SDS011;40040;42.706;23.372;2024-02-26T03:40:59;48.38;;;29.48;;
6937;SDS011;40040;42.706;23.372;2024-02-26T03:43:26;54.92;;;28.55;;
6937;SDS011;40040;42.706;23.372;2024-02-26T03:45:53;50.33;;;28.10;;
6937;SDS011;40040;42.706;23.372;2024-02-26T03:48:21;53.70;;;31.33;;
6937;SDS011;40040;42.706;23.372;2024-02-26T03:50:48;52.08;;;30.42;;
6937;SDS011;40040;42.706;23.372;2024-02-26T03:53:15;54.88;;;30.25;;
6937;SDS011;40040;42.706;23.372;2024-02-26T03:55:41;52.35;;;29.05;;
6937;SDS011;40040;42.706;23.372;2024-02-26T03:58:08;50.08;;;26.85;;
6937;SDS011;40040;42.706;23.372;2024-02-26T04:00:35;49.67;;;27.40;;
6937;SDS011;40040;42.706;23.372;2024-02-26T04:03:01;36.50;;;20.90;;
6937;SDS011;40040;42.706;23.372;2024-02-26T04:05:30;32.50;;;18.90;;
6937;SDS011;40040;42.706;23.372;2024-02-26T04:07:57;36.28;;;19.45;;
6937;SDS011;40040;42.706;23.372;2024-02-26T04:10:23;31.65;;;18.35;;
6937;SDS011;40040;42.706;23.372;2024-02-26T04:12:51;28.95;;;17.60;;
6937;SDS011;40040;42.706;23.372;2024-02-26T04:15:17;29.95;;;16.70;;
6937;SDS011;40040;42.706;23.372;2024-02-26T04:17:44;26.80;;;16.13;;
6937;SDS011;40040;42.706;23.372;2024-02-26T04:20:13;31.08;;;16.25;;
6937;SDS011;40040;42.706;23.372;2024-02-26T04:22:42;29.65;;;16.10;;
6937;SDS011;40040;42.706;23.372;2024-02-26T04:25:09;28.95;;;16.20;;
6937;SDS011;40040;42.706;23.372;2024-02-26T04:27:35;30.23;;;15.32;;
6937;SDS011;40040;42.706;23.372;2024-02-26T04:30:04;28.52;;;16.63;;
6937;SDS011;40040;42.706;23.372;2024-02-26T04:32:31;26.45;;;15.68;;
6937;SDS011;40040;42.706;23.372;2024-02-26T04:34:59;28.17;;;16.00;;
6937;SDS011;40040;42.706;23.372;2024-02-26T04:37:26;30.67;;;16.88;;
6937;SDS011;40040;42.706;23.372;2024-02-26T04:39:58;28.20;;;15.57;;
6937;SDS011;40040;42.706;23.372;2024-02-26T04:42:25;28.00;;;15.35;;
6937;SDS011;40040;42.706;23.372;2024-02-26T04:44:52;29.88;;;15.63;;
6937;SDS011;40040;42.706;23.372;2024-02-26T04:47:20;31.90;;;17.05;;
6937;SDS011;40040;42.706;23.372;2024-02-26T04:49:47;42.17;;;23.30;;
6937;SDS011;40040;42.706;23.372;2024-02-26T04:52:15;55.80;;;28.25;;
6937;SDS011;40040;42.706;23.372;2024-02-26T04:54:42;42.17;;;24.42;;
6937;SDS011;40040;42.706;23.372;2024-02-26T04:57:10;48.73;;;27.23;;
6937;SDS011;40040;42.706;23.372;2024-02-26T04:59:37;40.05;;;23.90;;
6937;SDS011;40040;42.706;23.372;2024-02-26T05:02:03;44.93;;;23.90;;
6937;SDS011;40040;42.706;23.372;2024-02-26T05:04:30;44.47;;;23.53;;
6937;SDS011;40040;42.706;23.372;2024-02-26T05:06:57;37.28;;;20.58;;
6937;SDS011;40040;42.706;23.372;2024-02-26T05:09:24;37.03;;;20.80;;
6937;SDS011;40040;42.706;23.372;2024-02-26T05:11:50;41.38;;;21.40;;
6937;SDS011;40040;42.706;23.372;2024-02-26T05:14:19;35.23;;;19.97;;
6937;SDS011;40040;42.706;23.372;2024-02-26T05:16:46;36.53;;;20.05;;
6937;SDS011;40040;42.706;23.372;2024-02-26T05:19:13;39.77;;;21.60;;
6937;SDS011;40040;42.706;23.372;2024-02-26T05:21:40;48.78;;;25.00;;
6937;SDS011;40040;42.706;23.372;2024-02-26T05:24:08;47.30;;;22.40;;
6937;SDS011;40040;42.706;23.372;2024-02-26T05:26:34;40.65;;;22.30;;
6937;SDS011;40040;42.706;23.372;2024-02-26T05:29:01;34.58;;;19.55;;
6937;SDS011;40040;42.706;23.372;2024-02-26T05:31:29;33.23;;;17.70;;
6937;SDS011;40040;42.706;23.372;2024-02-26T05:33:56;34.00;;;18.53;;
6937;SDS011;40040;42.706;23.372;2024-02-26T05:36:23;33.97;;;18.65;;
6937;SDS011;40040;42.706;23.372;2024-02-26T05:38:50;34.07;;;19.37;;
6937;SDS011;40040;42.706;23.372;2024-02-26T05:41:17;41.77;;;20.83;;
6937;SDS011;40040;42.706;23.372;2024-02-26T05:43:48;61.25;;;30.02;;
6937;SDS011;40040;42.706;23.372;2024-02-26T05:46:16;48.17;;;25.60;;
6937;SDS011;40040;42.706;23.372;2024-02-26T05:48:44;49.22;;;25.13;;
6937;SDS011;40040;42.706;23.372;2024-02-26T05:51:11;44.55;;;23.70;;
6937;SDS011;40040;42.706;23.372;2024-02-26T05:53:38;43.10;;;23.60;;
6937;SDS011;40040;42.706;23.372;2024-02-26T05:56:05;42.63;;;24.08;;
6937;SDS011;40040;42.706;23.372;2024-02-26T05:58:32;47.13;;;24.15;;
6937;SDS011;40040;42.706;23.372;2024-02-26T06:00:59;49.15;;;28.38;;
6937;SDS011;40040;42.706;23.372;2024-02-26T06:03:26;40.88;;;23.88;;
6937;SDS011;40040;42.706;23.372;2024-02-26T06:05:55;43.80;;;23.50;;
6937;SDS011;40040;42.706;23.372;2024-02-26T06:08:21;43.10;;;24.73;;
6937;SDS011;40040;42.706;23.372;2024-02-26T06:10:48;55.30;;;30.30;;
6937;SDS011;40040;42.706;23.372;2024-02-26T06:13:15;43.20;;;24.23;;
6937;SDS011;40040;42.706;23.372;2024-02-26T06:15:42;44.75;;;24.05;;
6937;SDS011;40040;42.706;23.372;2024-02-26T06:18:08;46.95;;;24.95;;
6937;SDS011;40040;42.706;23.372;2024-02-26T06:20:35;41.38;;;24.40;;
6937;SDS011;40040;42.706;23.372;2024-02-26T06:23:03;50.03;;;25.60;;
6937;SDS011;40040;42.706;23.372;2024-02-26T06:25:30;43.83;;;25.90;;
6937;SDS011;40040;42.706;23.372;2024-02-26T06:27:57;41.05;;;22.95;;
6937;SDS011;40040;42.706;23.372;2024-02-26T06:30:24;40.80;;;22.60;;
6937;SDS011;40040;42.706;23.372;2024-02-26T06:32:50;44.72;;;25.85;;
6937;SDS011;40040;42.706;23.372;2024-02-26T06:35:17;46.97;;;23.98;;
6937;SDS011;40040;42.706;23.372;2024-02-26T06:37:44;42.70;;;24.05;;
6937;SDS011;40040;42.706;23.372;2024-02-26T06:40:12;43.75;;;24.63;;
6937;SDS011;40040;42.706;23.372;2024-02-26T06:42:39;45.05;;;23.45;;
6937;SDS011;40040;42.706;23.372;2024-02-26T06:45:06;53.75;;;27.10;;
6937;SDS011;40040;42.706;23.372;2024-02-26T06:47:33;49.22;;;27.55;;
6937;SDS011;40040;42.706;23.372;2024-02-26T06:50:00;45.92;;;25.00;;
6937;SDS011;40040;42.706;23.372;2024-02-26T06:52:27;47.17;;;25.05;;
6937;SDS011;40040;42.706;23.372;2024-02-26T06:54:54;45.10;;;24.52;;
6937;SDS011;40040;42.706;23.372;2024-02-26T06:57:22;42.22;;;22.25;;
6937;SDS011;40040;42.706;23.372;2024-02-26T06:59:49;63.20;;;32.03;;
6937;SDS011;40040;42.706;23.372;2024-02-26T07:02:15;44.80;;;25.17;;
6937;SDS011;40040;42.706;23.372;2024-02-26T07:04:42;40.25;;;23.38;;
6937;SDS011;40040;42.706;23.372;2024-02-26T07:07:09;44.85;;;26.50;;
6937;SDS011;40040;42.706;23.372;2024-02-26T07:09:36;51.13;;;28.25;;
6937;SDS011;40040;42.706;23.372;2024-02-26T07:12:03;40.05;;;24.45;;
6937;SDS011;40040;42.706;23.372;2024-02-26T07:14:31;44.33;;;26.23;;
6937;SDS011;40040;42.706;23.372;2024-02-26T07:16:59;43.45;;;25.33;;
6937;SDS011;40040;42.706;23.372;2024-02-26T07:19:25;39.92;;;22.15;;
6937;SDS011;40040;42.706;23.372;2024-02-26T07:21:52;154.10;;;52.13;;
6937;SDS011;40040;42.706;23.372;2024-02-26T07:24:19;57.72;;;29.30;;
6937;SDS011;40040;42.706;23.372;2024-02-26T07:26:46;40.58;;;22.73;;
6937;SDS011;40040;42.706;23.372;2024-02-26T07:29:12;42.72;;;25.33;;
6937;SDS011;40040;42.706;23.372;2024-02-26T07:31:41;39.80;;;23.50;;
6937;SDS011;40040;42.706;23.372;2024-02-26T07:34:07;34.20;;;20.80;;
6937;SDS011;40040;42.706;23.372;2024-02-26T07:36:34;33.35;;;20.77;;
6937;SDS011;40040;42.706;23.372;2024-02-26T07:39:01;36.28;;;20.40;;
6937;SDS011;40040;42.706;23.372;2024-02-26T07:41:28;38.78;;;21.42;;
6937;SDS011;40040;42.706;23.372;2024-02-26T07:43:54;40.67;;;22.00;;
6937;SDS011;40040;42.706;23.372;2024-02-26T07:46:21;40.33;;;21.42;;
6937;SDS011;40040;42.706;23.372;2024-02-26T07:48:49;37.22;;;21.60;;
6937;SDS011;40040;42.706;23.372;2024-02-26T07:51:16;41.08;;;22.75;;
6937;SDS011;40040;42.706;23.372;2024-02-26T07:53:43;44.25;;;22.20;;
6937;SDS011;40040;42.706;23.372;2024-02-26T07:56:09;43.55;;;27.45;;
6937;SDS011;40040;42.706;23.372;2024-02-26T07:58:36;38.53;;;23.23;;
6937;SDS011;40040;42.706;23.372;2024-02-26T08:01:03;40.63;;;24.10;;
6937;SDS011;40040;42.706;23.372;2024-02-26T08:03:30;37.00;;;23.23;;
6937;SDS011;40040;42.706;23.372;2024-02-26T08:05:58;40.17;;;24.80;;
6937;SDS011;40040;42.706;23.372;2024-02-26T08:08:24;40.17;;;22.80;;
6937;SDS011;40040;42.706;23.372;2024-02-26T08:10:51;44.20;;;24.83;;
6937;SDS011;40040;42.706;23.372;2024-02-26T08:13:18;38.85;;;22.70;;
6937;SDS011;40040;42.706;23.372;2024-02-26T08:15:44;41.25;;;24.48;;
6937;SDS011;40040;42.706;23.372;2024-02-26T08:18:11;35.97;;;22.13;;
6937;SDS011;40040;42.706;23.372;2024-02-26T08:20:38;42.65;;;23.00;;
6937;SDS011;40040;42.706;23.372;2024-02-26T08:23:06;39.63;;;23.27;;
6937;SDS011;40040;42.706;23.372;2024-02-26T08:25:33;38.28;;;23.10;;
6937;SDS011;40040;42.706;23.372;2024-02-26T08:27:59;39.72;;;23.23;;
6937;SDS011;40040;42.706;23.372;2024-02-26T08:30:26;42.83;;;23.83;;
6937;SDS011;40040;42.706;23.372;2024-02-26T08:32:53;41.03;;;23.58;;
6937;SDS011;40040;42.706;23.372;2024-02-26T08:35:20;37.05;;;22.17;;
6937;SDS011;40040;42.706;23.372;2024-02-26T08:37:47;38.92;;;22.33;;
6937;SDS011;40040;42.706;23.372;2024-02-26T08:40:15;42.47;;;23.52;;
6937;SDS011;40040;42.706;23.372;2024-02-26T08:42:42;39.60;;;22.80;;
6937;SDS011;40040;42.706;23.372;2024-02-26T08:45:09;38.78;;;23.40;;
6937;SDS011;40040;42.706;23.372;2024-02-26T08:47:36;37.80;;;22.83;;
6937;SDS011;40040;42.706;23.372;2024-02-26T08:50:03;46.60;;;24.63;;
6937;SDS011;40040;42.706;23.372;2024-02-26T08:52:30;42.15;;;23.83;;
6937;SDS011;40040;42.706;23.372;2024-02-26T08:54:58;48.50;;;25.75;;
6937;SDS011;40040;42.706;23.372;2024-02-26T08:57:26;39.72;;;23.88;;
6937;SDS011;40040;42.706;23.372;2024-02-26T08:59:53;41.60;;;23.63;;
6937;SDS011;40040;42.706;23.372;2024-02-26T09:02:20;33.50;;;20.05;;
6937;SDS011;40040;42.706;23.372;2024-02-26T09:04:47;32.35;;;17.98;;
6937;SDS011;40040;42.706;23.372;2024-02-26T09:07:14;29.65;;;18.30;;
6937;SDS011;40040;42.706;23.372;2024-02-26T09:09:40;32.78;;;17.50;;
6937;SDS011;40040;42.706;23.372;2024-02-26T09:12:07;28.63;;;15.05;;
6937;SDS011;40040;42.706;23.372;2024-02-26T09:14:35;22.15;;;13.77;;
6937;SDS011;40040;42.706;23.372;2024-02-26T09:17:02;20.40;;;12.43;;
6937;SDS011;40040;42.706;23.372;2024-02-26T09:19:31;19.75;;;11.73;;
6937;SDS011;40040;42.706;23.372;2024-02-26T09:21:57;17.40;;;11.25;;
6937;SDS011;40040;42.706;23.372;2024-02-26T09:24:24;19.45;;;11.63;;
6937;SDS011;40040;42.706;23.372;2024-02-26T09:26:51;23.77;;;14.65;;
6937;SDS011;40040;42.706;23.372;2024-02-26T09:29:18;23.73;;;14.32;;
6937;SDS011;40040;42.706;23.372;2024-02-26T09:31:46;16.17;;;9.48;;
6937;SDS011;40040;42.706;23.372;2024-02-26T09:34:13;10.32;;;6.20;;
6937;SDS011;40040;42.706;23.372;2024-02-26T09:36:40;7.07;;;6.38;;
6937;SDS011;40040;42.706;23.372;2024-02-26T09:39:06;6.28;;;5.68;;
6937;SDS011;40040;42.706;23.372;2024-02-26T09:41:36;10.68;;;7.50;;
6937;SDS011;40040;42.706;23.372;2024-02-26T09:44:04;9.45;;;6.43;;
6937;SDS011;40040;42.706;23.372;2024-02-26T09:46:32;9.10;;;6.32;;
6937;SDS011;40040;42.706;23.372;2024-02-26T09:49:01;11.50;;;6.65;;
6937;SDS011;40040;42.706;23.372;2024-02-26T09:51:28;9.40;;;6.18;;
6937;SDS011;40040;42.706;23.372;2024-02-26T09:53:55;6.97;;;6.22;;
6937;SDS011;40040;42.706;23.372;2024-02-26T09:56:25;9.30;;;5.78;;
6937;SDS011;40040;42.706;23.372;2024-02-26T09:58:53;10.48;;;7.53;;
6937;SDS011;40040;42.706;23.372;2024-02-26T10:01:22;16.52;;;9.32;;
6937;SDS011;40040;42.706;23.372;2024-02-26T10:03:52;11.65;;;5.97;;
6937;SDS011;40040;42.706;23.372;2024-02-26T10:06:22;8.50;;;6.15;;
6937;SDS011;40040;42.706;23.372;2024-02-26T10:08:50;10.73;;;7.15;;
6937;SDS011;40040;42.706;23.372;2024-02-26T10:11:18;7.93;;;5.47;;
6937;SDS011;40040;42.706;23.372;2024-02-26T10:13:45;10.57;;;7.15;;
6937;SDS011;40040;42.706;23.372;2024-02-26T10:16:12;7.10;;;6.32;;
6937;SDS011;40040;42.706;23.372;2024-02-26T10:18:46;9.45;;;6.70;;
6937;SDS011;40040;42.706;23.372;2024-02-26T10:21:14;7.00;;;5.85;;
6937;SDS011;40040;42.706;23.372;2024-02-26T10:23:44;7.55;;;6.10;;
6937;SDS011;40040;42.706;23.372;2024-02-26T10:26:12;6.15;;;5.55;;
6937;SDS011;40040;42.706;23.372;2024-02-26T10:28:41;6.80;;;5.70;;
6937;SDS011;40040;42.706;23.372;2024-02-26T10:31:08;7.38;;;6.57;;
6937;SDS011;40040;42.706;23.372;2024-02-26T10:33:35;8.23;;;6.20;;
6937;SDS011;40040;42.706;23.372;2024-02-26T10:36:03;8.00;;;5.78;;
6937;SDS011;40040;42.706;23.372;2024-02-26T10:38:32;7.97;;;5.38;;
6937;SDS011;40040;42.706;23.372;2024-02-26T10:41:00;7.63;;;6.93;;
6937;SDS011;40040;42.706;23.372;2024-02-26T10:43:28;8.63;;;6.10;;
6937;SDS011;40040;42.706;23.372;2024-02-26T10:45:55;11.48;;;7.13;;
6937;SDS011;40040;42.706;23.372;2024-02-26T10:48:22;8.65;;;6.35;;
6937;SDS011;40040;42.706;23.372;2024-02-26T10:50:49;9.98;;;7.47;;
6937;SDS011;40040;42.706;23.372;2024-02-26T10:53:19;10.85;;;7.60;;
6937;SDS011;40040;42.706;23.372;2024-02-26T10:55:48;8.18;;;6.97;;
6937;SDS011;40040;42.706;23.372;2024-02-26T10:58:17;8.80;;;7.70;;
6937;SDS011;40040;42.706;23.372;2024-02-26T11:00:45;14.45;;;8.88;;
6937;SDS011;40040;42.706;23.372;2024-02-26T11:03:13;11.82;;;8.05;;
6937;SDS011;40040;42.706;23.372;2024-02-26T11:05:42;10.27;;;7.65;;
6937;SDS011;40040;42.706;23.372;2024-02-26T11:08:09;10.38;;;7.13;;
6937;SDS011;40040;42.706;23.372;2024-02-26T11:10:37;11.05;;;7.38;;
6937;SDS011;40040;42.706;23.372;2024-02-26T11:13:06;10.82;;;6.80;;
6937;SDS011;40040;42.706;23.372;2024-02-26T11:15:39;6.53;;;4.95;;
6937;SDS011;40040;42.706;23.372;2024-02-26T11:18:06;8.65;;;5.68;;
6937;SDS011;40040;42.706;23.372;2024-02-26T11:20:34;7.70;;;5.10;;
6937;SDS011;40040;42.706;23.372;2024-02-26T11:23:04;10.32;;;6.75;;
6937;SDS011;40040;42.706;23.372;2024-02-26T11:25:31;6.03;;;4.82;;
6937;SDS011;40040;42.706;23.372;2024-02-26T11:27:59;8.10;;;5.70;;
6937;SDS011;40040;42.706;23.372;2024-02-26T11:30:30;4.93;;;4.47;;
6937;SDS011;40040;42.706;23.372;2024-02-26T11:33:01;6.43;;;5.50;;
6937;SDS011;40040;42.706;23.372;2024-02-26T11:35:29;6.78;;;4.88;;
6937;SDS011;40040;42.706;23.372;2024-02-26T11:37:56;6.38;;;4.97;;
6937;SDS011;40040;42.706;23.372;2024-02-26T11:40:26;5.70;;;5.00;;
6937;SDS011;40040;42.706;23.372;2024-02-26T11:42:53;9.93;;;5.95;;
6937;SDS011;40040;42.706;23.372;2024-02-26T11:48:25;6.90;;;5.43;;
6937;SDS011;40040;42.706;23.372;2024-02-26T11:50:55;10.32;;;7.40;;
6937;SDS011;40040;42.706;23.372;2024-02-26T11:53:25;10.25;;;7.18;;
6937;SDS011;40040;42.706;23.372;2024-02-26T11:58:47;11.27;;;6.78;;
6937;SDS011;40040;42.706;23.372;2024-02-26T12:04:12;10.02;;;6.68;;
6937;SDS011;40040;42.706;23.372;2024-02-26T12:06:41;6.05;;;5.43;;
6937;SDS011;40040;42.706;23.372;2024-02-26T12:09:09;6.28;;;4.90;;
6937;SDS011;40040;42.706;23.372;2024-02-26T12:11:38;9.27;;;5.80;;
6937;SDS011;40040;42.706;23.372;2024-02-26T12:14:05;6.07;;;4.80;;
6937;SDS011;40040;42.706;23.372;2024-02-26T12:16:37;6.68;;;5.97;;
6937;SDS011;40040;42.706;23.372;2024-02-26T12:19:04;15.65;;;9.50;;
6937;SDS011;40040;42.706;23.372;2024-02-26T12:21:34;9.45;;;5.82;;
6937;SDS011;40040;42.706;23.372;2024-02-26T12:24:09;12.32;;;8.23;;
6937;SDS011;40040;42.706;23.372;2024-02-26T12:26:37;7.45;;;6.18;;
6937;SDS011;40040;42.706;23.372;2024-02-26T12:29:04;9.43;;;6.25;;
6937;SDS011;40040;42.706;23.372;2024-02-26T12:31:31;12.07;;;6.65;;
6937;SDS011;40040;42.706;23.372;2024-02-26T12:33:59;10.60;;;5.90;;
6937;SDS011;40040;42.706;23.372;2024-02-26T12:36:26;10.98;;;7.82;;
6937;SDS011;40040;42.706;23.372;2024-02-26T12:38:54;11.70;;;6.85;;
6937;SDS011;40040;42.706;23.372;2024-02-26T12:41:21;8.98;;;6.28;;
6937;SDS011;40040;42.706;23.372;2024-02-26T12:43:48;7.32;;;5.22;;
6937;SDS011;40040;42.706;23.372;2024-02-26T12:46:15;9.05;;;7.90;;
6937;SDS011;40040;42.706;23.372;2024-02-26T12:48:42;8.30;;;5.90;;
6937;SDS011;40040;42.706;23.372;2024-02-26T12:51:10;8.32;;;5.20;;
6937;SDS011;40040;42.706;23.372;2024-02-26T12:53:37;17.52;;;11.00;;
6937;SDS011;40040;42.706;23.372;2024-02-26T12:56:06;21.65;;;14.70;;
6937;SDS011;40040;42.706;23.372;2024-02-26T12:58:35;9.95;;;6.35;;
6937;SDS011;40040;42.706;23.372;2024-02-26T13:01:04;9.18;;;5.55;;
6937;SDS011;40040;42.706;23.372;2024-02-26T13:03:31;6.93;;;6.32;;
6937;SDS011;40040;42.706;23.372;2024-02-26T13:05:59;12.52;;;8.90;;
6937;SDS011;40040;42.706;23.372;2024-02-26T13:08:26;11.20;;;7.82;;
6937;SDS011;40040;42.706;23.372;2024-02-26T13:10:53;10.63;;;6.55;;
6937;SDS011;40040;42.706;23.372;2024-02-26T13:13:22;9.18;;;7.20;;
6937;SDS011;40040;42.706;23.372;2024-02-26T13:15:49;8.82;;;6.85;;
6937;SDS011;40040;42.706;23.372;2024-02-26T13:18:15;7.18;;;5.32;;
6937;SDS011;40040;42.706;23.372;2024-02-26T13:20:42;14.63;;;8.57;;
6937;SDS011;40040;42.706;23.372;2024-02-26T13:23:10;8.30;;;6.22;;
6937;SDS011;40040;42.706;23.372;2024-02-26T13:25:38;11.20;;;7.95;;
6937;SDS011;40040;42.706;23.372;2024-02-26T13:28:06;12.40;;;8.82;;
6937;SDS011;40040;42.706;23.372;2024-02-26T13:30:35;5.70;;;5.20;;
6937;SDS011;40040;42.706;23.372;2024-02-26T13:33:09;10.88;;;5.97;;
6937;SDS011;40040;42.706;23.372;2024-02-26T13:35:36;7.82;;;6.53;;
6937;SDS011;40040;42.706;23.372;2024-02-26T13:38:04;18.77;;;13.38;;
6937;SDS011;40040;42.706;23.372;2024-02-26T13:40:31;11.32;;;7.10;;
6937;SDS011;40040;42.706;23.372;2024-02-26T13:42:59;14.82;;;9.52;;
6937;SDS011;40040;42.706;23.372;2024-02-26T13:45:25;13.60;;;10.18;;
6937;SDS011;40040;42.706;23.372;2024-02-26T13:47:54;9.98;;;6.57;;
6937;SDS011;40040;42.706;23.372;2024-02-26T13:50:27;18.25;;;11.50;;
6937;SDS011;40040;42.706;23.372;2024-02-26T13:52:54;13.55;;;9.43;;
6937;SDS011;40040;42.706;23.372;2024-02-26T13:55:21;14.52;;;9.18;;
6937;SDS011;40040;42.706;23.372;2024-02-26T13:57:51;16.20;;;11.27;;
6937;SDS011;40040;42.706;23.372;2024-02-26T14:00:19;14.98;;;9.98;;
6937;SDS011;40040;42.706;23.372;2024-02-26T14:02:46;11.30;;;8.88;;
6937;SDS011;40040;42.706;23.372;2024-02-26T14:05:14;9.85;;;6.10;;
6937;SDS011;40040;42.706;23.372;2024-02-26T14:07:41;10.10;;;5.85;;
6937;SDS011;40040;42.706;23.372;2024-02-26T14:10:08;9.18;;;6.43;;
6937;SDS011;40040;42.706;23.372;2024-02-26T14:12:37;15.13;;;10.70;;
6937;SDS011;40040;42.706;23.372;2024-02-26T14:15:06;15.73;;;9.80;;
6937;SDS011;40040;42.706;23.372;2024-02-26T14:17:33;9.52;;;6.40;;
6937;SDS011;40040;42.706;23.372;2024-02-26T14:20:00;15.35;;;10.00;;
6937;SDS011;40040;42.706;23.372;2024-02-26T14:22:28;11.98;;;7.40;;
6937;SDS011;40040;42.706;23.372;2024-02-26T14:24:55;16.23;;;10.02;;
6937;SDS011;40040;42.706;23.372;2024-02-26T14:27:22;16.67;;;9.43;;
6937;SDS011;40040;42.706;23.372;2024-02-26T14:29:49;11.52;;;8.38;;
6937;SDS011;40040;42.706;23.372;2024-02-26T14:32:16;7.55;;;5.15;;
6937;SDS011;40040;42.706;23.372;2024-02-26T14:34:42;7.85;;;6.65;;
6937;SDS011;40040;42.706;23.372;2024-02-26T14:37:09;6.80;;;5.70;;
6937;SDS011;40040;42.706;23.372;2024-02-26T14:39:38;9.57;;;7.15;;